sensor_id;sensor_type;location;lat;lon;timestamp;P1;durP1;ratioP1;P2;durP2;ratioP2
63398;SDS011;49533;-34.520;150.798;2023-12-20T00:02:16;0.60;;;0.40;;
63398;SDS011;49533;-34.520;150.798;2023-12-20T00:04:43;1.45;;;0.20;;
63398;SDS011;49533;-34.520;150.798;2023-12-20T00:07:10;1.08;;;0.20;;
63398;SDS011;49533;-34.520;150.798;2023-12-20T00:09:37;0.10;;;0.10;;
63398;SDS011;49533;-34.520;150.798;2023-12-20T00:12:05;1.80;;;0.10;;
63398;SDS011;49533;-34.520;150.798;2023-12-20T00:14:32;1.38;;;0.10;;
63398;SDS011;49533;-34.520;150.798;2023-12-20T00:16:59;0.15;;;0.10;;
63398;SDS011;49533;-34.520;150.798;2023-12-20T00:19:26;0.20;;;0.20;;
63398;SDS011;49533;-34.520;150.798;2023-12-20T00:21:53;0.47;;;0.10;;
63398;SDS011;49533;-34.520;150.798;2023-12-20T00:24:20;1.15;;;0.05;;
63398;SDS011;49533;-34.520;150.798;2023-12-20T00:26:47;0.73;;;0.10;;
63398;SDS011;49533;-34.520;150.798;2023-12-20T00:29:14;2.30;;;0.15;;
63398;SDS011;49533;-34.520;150.798;2023-12-20T00:31:41;1.05;;;0.28;;
63398;SDS011;49533;-34.520;150.798;2023-12-20T00:34:08;0.13;;;0.05;;
63398;SDS011;49533;-34.520;150.798;2023-12-20T00:36:35;0.43;;;0.13;;
63398;SDS011;49533;-34.520;150.798;2023-12-20T00:39:02;1.17;;;0.10;;
63398;SDS011;49533;-34.520;150.798;2023-12-20T00:41:30;0.98;;;0.10;;
63398;SDS011;49533;-34.520;150.798;2023-12-20T00:43:57;1.40;;;0.20;;
63398;SDS011;49533;-34.520;150.798;2023-12-20T00:46:24;0.32;;;0.20;;
63398;SDS011;49533;-34.520;150.798;2023-12-20T00:48:51;0.05;;;0.05;;
63398;SDS011;49533;-34.520;150.798;2023-12-20T00:51:18;1.17;;;0.13;;
63398;SDS011;49533;-34.520;150.798;2023-12-20T00:53:45;0.20;;;0.00;;
63398;SDS011;49533;-34.520;150.798;2023-12-20T00:56:14;0.60;;;0.30;;
63398;SDS011;49533;-34.520;150.798;2023-12-20T00:58:42;1.33;;;0.10;;
63398;SDS011;49533;-34.520;150.798;2023-12-20T01:01:09;0.20;;;0.15;;
63398;SDS011;49533;-34.520;150.798;2023-12-20T01:03:36;0.00;;;0.00;;
63398;SDS011;49533;-34.520;150.798;2023-12-20T01:06:03;1.00;;;0.08;;
63398;SDS011;49533;-34.520;150.798;2023-12-20T01:08:31;0.52;;;0.10;;
63398;SDS011;49533;-34.520;150.798;2023-12-20T01:11:00;0.47;;;0.17;;
63398;SDS011;49533;-34.520;150.798;2023-12-20T01:13:29;0.10;;;0.10;;
63398;SDS011;49533;-34.520;150.798;2023-12-20T01:15:56;0.10;;;0.10;;
63398;SDS011;49533;-34.520;150.798;2023-12-20T01:18:23;0.38;;;0.28;;
63398;SDS011;49533;-34.520;150.798;2023-12-20T01:20:51;0.10;;;0.08;;
63398;SDS011;49533;-34.520;150.798;2023-12-20T01:23:18;0.10;;;0.10;;
63398;SDS011;49533;-34.520;150.798;2023-12-20T01:25:45;0.08;;;0.08;;
63398;SDS011;49533;-34.520;150.798;2023-12-20T01:28:12;0.08;;;0.08;;
63398;SDS011;49533;-34.520;150.798;2023-12-20T01:30:39;0.15;;;0.03;;
63398;SDS011;49533;-34.520;150.798;2023-12-20T01:33:06;0.52;;;0.20;;
63398;SDS011;49533;-34.520;150.798;2023-12-20T01:35:33;0.03;;;0.03;;
63398;SDS011;49533;-34.520;150.798;2023-12-20T01:38:00;0.10;;;0.10;;
63398;SDS011;49533;-34.520;150.798;2023-12-20T01:40:27;0.00;;;0.00;;
63398;SDS011;49533;-34.520;150.798;2023-12-20T01:43:12;0.80;;;0.05;;
63398;SDS011;49533;-34.520;150.798;2023-12-20T01:45:39;0.10;;;0.05;;
63398;SDS011;49533;-34.520;150.798;2023-12-20T01:48:07;0.65;;;0.30;;
63398;SDS011;49533;-34.520;150.798;2023-12-20T01:50:36;0.17;;;0.17;;
63398;SDS011;49533;-34.520;150.798;2023-12-20T01:53:04;0.13;;;0.10;;
63398;SDS011;49533;-34.520;150.798;2023-12-20T01:55:34;0.17;;;0.10;;
63398;SDS011;49533;-34.520;150.798;2023-12-20T01:58:05;0.00;;;0.00;;
63398;SDS011;49533;-34.520;150.798;2023-12-20T02:00:36;0.73;;;0.13;;
63398;SDS011;49533;-34.520;150.798;2023-12-20T02:03:04;0.32;;;0.10;;
63398;SDS011;49533;-34.520;150.798;2023-12-20T02:05:32;1.17;;;0.30;;
63398;SDS011;49533;-34.520;150.798;2023-12-20T02:08:01;0.30;;;0.30;;
63398;SDS011;49533;-34.520;150.798;2023-12-20T02:10:28;0.22;;;0.22;;
63398;SDS011;49533;-34.520;150.798;2023-12-20T02:12:55;0.17;;;0.17;;
63398;SDS011;49533;-34.520;150.798;2023-12-20T02:15:23;0.00;;;0.00;;
63398;SDS011;49533;-34.520;150.798;2023-12-20T02:17:50;0.10;;;0.10;;
63398;SDS011;49533;-34.520;150.798;2023-12-20T02:20:17;0.25;;;0.10;;
63398;SDS011;49533;-34.520;150.798;2023-12-20T02:22:44;0.73;;;0.20;;
63398;SDS011;49533;-34.520;150.798;2023-12-20T02:25:11;0.35;;;0.17;;
63398;SDS011;49533;-34.520;150.798;2023-12-20T02:27:39;0.10;;;0.10;;
63398;SDS011;49533;-34.520;150.798;2023-12-20T02:30:06;0.35;;;0.10;;
63398;SDS011;49533;-34.520;150.798;2023-12-20T02:32:34;0.10;;;0.10;;
63398;SDS011;49533;-34.520;150.798;2023-12-20T02:35:01;5.38;;;0.85;;
63398;SDS011;49533;-34.520;150.798;2023-12-20T02:37:28;2.40;;;0.30;;
63398;SDS011;49533;-34.520;150.798;2023-12-20T02:39:55;0.70;;;0.13;;
63398;SDS011;49533;-34.520;150.798;2023-12-20T02:42:22;0.20;;;0.05;;
63398;SDS011;49533;-34.520;150.798;2023-12-20T02:44:50;0.98;;;0.10;;
63398;SDS011;49533;-34.520;150.798;2023-12-20T02:47:17;0.40;;;0.10;;
63398;SDS011;49533;-34.520;150.798;2023-12-20T02:49:44;0.65;;;0.10;;
63398;SDS011;49533;-34.520;150.798;2023-12-20T02:52:11;0.00;;;0.00;;
63398;SDS011;49533;-34.520;150.798;2023-12-20T02:54:38;1.65;;;0.20;;
63398;SDS011;49533;-34.520;150.798;2023-12-20T02:57:05;1.25;;;0.22;;
63398;SDS011;49533;-34.520;150.798;2023-12-20T02:59:32;0.00;;;0.00;;
63398;SDS011;49533;-34.520;150.798;2023-12-20T03:02:00;0.00;;;0.00;;
63398;SDS011;49533;-34.520;150.798;2023-12-20T03:04:27;0.08;;;0.00;;
63398;SDS011;49533;-34.520;150.798;2023-12-20T03:06:54;0.43;;;0.43;;
63398;SDS011;49533;-34.520;150.798;2023-12-20T03:09:21;0.40;;;0.40;;
63398;SDS011;49533;-34.520;150.798;2023-12-20T03:11:48;0.30;;;0.30;;
63398;SDS011;49533;-34.520;150.798;2023-12-20T03:14:15;1.02;;;0.20;;
63398;SDS011;49533;-34.520;150.798;2023-12-20T03:16:46;0.43;;;0.28;;
63398;SDS011;49533;-34.520;150.798;2023-12-20T03:19:15;0.30;;;0.30;;
63398;SDS011;49533;-34.520;150.798;2023-12-20T03:21:45;0.28;;;0.20;;
63398;SDS011;49533;-34.520;150.798;2023-12-20T03:24:12;0.70;;;0.30;;
63398;SDS011;49533;-34.520;150.798;2023-12-20T03:26:39;0.30;;;0.30;;
63398;SDS011;49533;-34.520;150.798;2023-12-20T03:29:06;0.73;;;0.20;;
63398;SDS011;49533;-34.520;150.798;2023-12-20T03:31:33;0.70;;;0.20;;
63398;SDS011;49533;-34.520;150.798;2023-12-20T03:34:00;0.40;;;0.20;;
63398;SDS011;49533;-34.520;150.798;2023-12-20T03:36:27;0.10;;;0.10;;
63398;SDS011;49533;-34.520;150.798;2023-12-20T03:38:54;0.60;;;0.20;;
63398;SDS011;49533;-34.520;150.798;2023-12-20T03:41:22;0.40;;;0.30;;
63398;SDS011;49533;-34.520;150.798;2023-12-20T03:43:49;0.43;;;0.10;;
63398;SDS011;49533;-34.520;150.798;2023-12-20T03:46:16;0.38;;;0.20;;
63398;SDS011;49533;-34.520;150.798;2023-12-20T03:48:43;0.20;;;0.10;;
63398;SDS011;49533;-34.520;150.798;2023-12-20T03:51:10;0.10;;;0.10;;
63398;SDS011;49533;-34.520;150.798;2023-12-20T03:53:38;0.43;;;0.10;;
63398;SDS011;49533;-34.520;150.798;2023-12-20T03:56:06;1.23;;;0.20;;
63398;SDS011;49533;-34.520;150.798;2023-12-20T03:58:33;0.10;;;0.10;;
63398;SDS011;49533;-34.520;150.798;2023-12-20T04:01:00;0.30;;;0.20;;
63398;SDS011;49533;-34.520;150.798;2023-12-20T04:03:28;0.00;;;0.00;;
63398;SDS011;49533;-34.520;150.798;2023-12-20T04:05:55;0.40;;;0.20;;
63398;SDS011;49533;-34.520;150.798;2023-12-20T04:08:22;0.10;;;0.00;;
63398;SDS011;49533;-34.520;150.798;2023-12-20T04:10:49;0.10;;;0.00;;
63398;SDS011;49533;-34.520;150.798;2023-12-20T04:13:16;0.30;;;0.13;;
63398;SDS011;49533;-34.520;150.798;2023-12-20T04:15:43;0.50;;;0.10;;
63398;SDS011;49533;-34.520;150.798;2023-12-20T04:18:11;0.10;;;0.10;;
63398;SDS011;49533;-34.520;150.798;2023-12-20T04:20:38;0.55;;;0.32;;
63398;SDS011;49533;-34.520;150.798;2023-12-20T04:23:05;0.35;;;0.10;;
63398;SDS011;49533;-34.520;150.798;2023-12-20T04:25:32;0.30;;;0.10;;
63398;SDS011;49533;-34.520;150.798;2023-12-20T04:27:59;0.20;;;0.10;;
63398;SDS011;49533;-34.520;150.798;2023-12-20T04:30:26;0.40;;;0.05;;
63398;SDS011;49533;-34.520;150.798;2023-12-20T04:32:53;0.10;;;0.00;;
63398;SDS011;49533;-34.520;150.798;2023-12-20T04:35:23;0.10;;;0.10;;
63398;SDS011;49533;-34.520;150.798;2023-12-20T04:37:50;0.20;;;0.10;;
63398;SDS011;49533;-34.520;150.798;2023-12-20T04:40:17;0.55;;;0.03;;
63398;SDS011;49533;-34.520;150.798;2023-12-20T04:42:44;1.08;;;0.10;;
63398;SDS011;49533;-34.520;150.798;2023-12-20T04:45:11;1.20;;;0.10;;
63398;SDS011;49533;-34.520;150.798;2023-12-20T04:47:41;0.08;;;0.08;;
63398;SDS011;49533;-34.520;150.798;2023-12-20T04:50:08;0.55;;;0.10;;
63398;SDS011;49533;-34.520;150.798;2023-12-20T04:52:36;0.55;;;0.17;;
63398;SDS011;49533;-34.520;150.798;2023-12-20T04:55:04;0.30;;;0.15;;
63398;SDS011;49533;-34.520;150.798;2023-12-20T04:57:31;0.00;;;0.00;;
63398;SDS011;49533;-34.520;150.798;2023-12-20T04:59:58;0.00;;;0.00;;
63398;SDS011;49533;-34.520;150.798;2023-12-20T05:02:25;0.38;;;0.10;;
63398;SDS011;49533;-34.520;150.798;2023-12-20T05:04:52;0.82;;;0.05;;
63398;SDS011;49533;-34.520;150.798;2023-12-20T05:07:19;1.42;;;0.10;;
63398;SDS011;49533;-34.520;150.798;2023-12-20T05:09:47;0.17;;;0.00;;
63398;SDS011;49533;-34.520;150.798;2023-12-20T05:12:14;1.45;;;0.25;;
63398;SDS011;49533;-34.520;150.798;2023-12-20T05:14:41;0.98;;;0.25;;
63398;SDS011;49533;-34.520;150.798;2023-12-20T05:17:08;0.17;;;0.10;;
63398;SDS011;49533;-34.520;150.798;2023-12-20T05:19:35;0.80;;;0.10;;
63398;SDS011;49533;-34.520;150.798;2023-12-20T05:22:03;0.20;;;0.10;;
63398;SDS011;49533;-34.520;150.798;2023-12-20T05:24:30;0.30;;;0.00;;
63398;SDS011;49533;-34.520;150.798;2023-12-20T05:26:57;0.08;;;0.00;;
63398;SDS011;49533;-34.520;150.798;2023-12-20T05:29:24;0.82;;;0.20;;
63398;SDS011;49533;-34.520;150.798;2023-12-20T05:31:52;0.47;;;0.10;;
63398;SDS011;49533;-34.520;150.798;2023-12-20T05:34:19;1.05;;;0.50;;
63398;SDS011;49533;-34.520;150.798;2023-12-20T05:36:46;4.78;;;0.20;;
63398;SDS011;49533;-34.520;150.798;2023-12-20T05:39:14;1.63;;;0.30;;
63398;SDS011;49533;-34.520;150.798;2023-12-20T05:41:41;4.07;;;0.68;;
63398;SDS011;49533;-34.520;150.798;2023-12-20T05:44:08;1.20;;;0.32;;
63398;SDS011;49533;-34.520;150.798;2023-12-20T05:46:36;0.55;;;0.20;;
63398;SDS011;49533;-34.520;150.798;2023-12-20T05:49:03;2.35;;;0.22;;
63398;SDS011;49533;-34.520;150.798;2023-12-20T05:51:30;1.25;;;0.68;;
63398;SDS011;49533;-34.520;150.798;2023-12-20T05:53:57;1.45;;;0.47;;
63398;SDS011;49533;-34.520;150.798;2023-12-20T05:56:24;1.73;;;0.57;;
63398;SDS011;49533;-34.520;150.798;2023-12-20T05:58:51;0.20;;;0.20;;
63398;SDS011;49533;-34.520;150.798;2023-12-20T06:01:18;1.00;;;0.38;;
63398;SDS011;49533;-34.520;150.798;2023-12-20T06:03:45;1.67;;;0.30;;
63398;SDS011;49533;-34.520;150.798;2023-12-20T06:06:13;0.45;;;0.25;;
63398;SDS011;49533;-34.520;150.798;2023-12-20T06:08:40;1.27;;;0.30;;
63398;SDS011;49533;-34.520;150.798;2023-12-20T06:11:09;1.20;;;0.50;;
63398;SDS011;49533;-34.520;150.798;2023-12-20T06:13:36;1.05;;;0.40;;
63398;SDS011;49533;-34.520;150.798;2023-12-20T06:16:04;0.60;;;0.32;;
63398;SDS011;49533;-34.520;150.798;2023-12-20T06:18:32;0.30;;;0.30;;
63398;SDS011;49533;-34.520;150.798;2023-12-20T06:20:59;1.38;;;0.50;;
63398;SDS011;49533;-34.520;150.798;2023-12-20T06:23:27;1.38;;;0.32;;
63398;SDS011;49533;-34.520;150.798;2023-12-20T06:25:54;0.98;;;0.40;;
63398;SDS011;49533;-34.520;150.798;2023-12-20T06:28:22;0.98;;;0.38;;
63398;SDS011;49533;-34.520;150.798;2023-12-20T06:30:49;1.30;;;0.60;;
63398;SDS011;49533;-34.520;150.798;2023-12-20T06:33:17;0.90;;;0.30;;
63398;SDS011;49533;-34.520;150.798;2023-12-20T06:35:46;2.47;;;0.55;;
63398;SDS011;49533;-34.520;150.798;2023-12-20T06:38:14;1.02;;;0.20;;
63398;SDS011;49533;-34.520;150.798;2023-12-20T06:40:41;0.38;;;0.20;;
63398;SDS011;49533;-34.520;150.798;2023-12-20T06:43:08;1.13;;;0.38;;
63398;SDS011;49533;-34.520;150.798;2023-12-20T06:45:35;0.88;;;0.40;;
63398;SDS011;49533;-34.520;150.798;2023-12-20T06:48:02;0.43;;;0.20;;
63398;SDS011;49533;-34.520;150.798;2023-12-20T06:50:30;0.57;;;0.30;;
63398;SDS011;49533;-34.520;150.798;2023-12-20T06:52:57;1.33;;;0.40;;
63398;SDS011;49533;-34.520;150.798;2023-12-20T06:55:24;2.05;;;0.52;;
63398;SDS011;49533;-34.520;150.798;2023-12-20T06:57:51;1.73;;;0.60;;
63398;SDS011;49533;-34.520;150.798;2023-12-20T07:00:18;1.52;;;0.20;;
63398;SDS011;49533;-34.520;150.798;2023-12-20T07:02:46;0.85;;;0.38;;
63398;SDS011;49533;-34.520;150.798;2023-12-20T07:05:15;1.58;;;0.52;;
63398;SDS011;49533;-34.520;150.798;2023-12-20T07:07:45;1.27;;;0.43;;
63398;SDS011;49533;-34.520;150.798;2023-12-20T07:10:13;0.65;;;0.52;;
63398;SDS011;49533;-34.520;150.798;2023-12-20T07:12:40;1.10;;;0.68;;
63398;SDS011;49533;-34.520;150.798;2023-12-20T07:15:07;0.82;;;0.47;;
63398;SDS011;49533;-34.520;150.798;2023-12-20T07:17:35;1.40;;;0.63;;
63398;SDS011;49533;-34.520;150.798;2023-12-20T07:20:02;1.38;;;0.57;;
63398;SDS011;49533;-34.520;150.798;2023-12-20T07:22:30;1.90;;;0.57;;
63398;SDS011;49533;-34.520;150.798;2023-12-20T07:24:57;1.60;;;0.68;;
63398;SDS011;49533;-34.520;150.798;2023-12-20T07:27:25;2.03;;;1.02;;
63398;SDS011;49533;-34.520;150.798;2023-12-20T07:29:53;2.13;;;0.95;;
63398;SDS011;49533;-34.520;150.798;2023-12-20T07:32:20;3.97;;;1.00;;
63398;SDS011;49533;-34.520;150.798;2023-12-20T07:34:49;1.50;;;0.93;;
63398;SDS011;49533;-34.520;150.798;2023-12-20T07:37:17;1.55;;;0.98;;
63398;SDS011;49533;-34.520;150.798;2023-12-20T07:39:44;1.48;;;0.82;;
63398;SDS011;49533;-34.520;150.798;2023-12-20T07:42:11;1.95;;;1.10;;
63398;SDS011;49533;-34.520;150.798;2023-12-20T07:44:38;1.55;;;0.98;;
63398;SDS011;49533;-34.520;150.798;2023-12-20T07:47:05;2.55;;;0.93;;
63398;SDS011;49533;-34.520;150.798;2023-12-20T07:49:33;3.42;;;1.10;;
63398;SDS011;49533;-34.520;150.798;2023-12-20T07:52:00;2.10;;;1.02;;
63398;SDS011;49533;-34.520;150.798;2023-12-20T07:54:27;3.08;;;1.33;;
63398;SDS011;49533;-34.520;150.798;2023-12-20T07:56:55;3.05;;;1.58;;
63398;SDS011;49533;-34.520;150.798;2023-12-20T07:59:23;2.75;;;1.30;;
63398;SDS011;49533;-34.520;150.798;2023-12-20T08:01:50;2.50;;;1.67;;
63398;SDS011;49533;-34.520;150.798;2023-12-20T08:04:17;3.15;;;1.50;;
63398;SDS011;49533;-34.520;150.798;2023-12-20T08:06:44;2.47;;;1.38;;
63398;SDS011;49533;-34.520;150.798;2023-12-20T08:09:11;3.60;;;1.58;;
63398;SDS011;49533;-34.520;150.798;2023-12-20T08:11:38;2.38;;;1.33;;
63398;SDS011;49533;-34.520;150.798;2023-12-20T08:14:05;2.15;;;1.23;;
63398;SDS011;49533;-34.520;150.798;2023-12-20T08:16:32;3.30;;;1.33;;
63398;SDS011;49533;-34.520;150.798;2023-12-20T08:19:03;2.67;;;1.27;;
63398;SDS011;49533;-34.520;150.798;2023-12-20T08:21:30;4.43;;;1.67;;
63398;SDS011;49533;-34.520;150.798;2023-12-20T08:23:57;3.85;;;1.23;;
63398;SDS011;49533;-34.520;150.798;2023-12-20T08:26:26;3.58;;;1.05;;
63398;SDS011;49533;-34.520;150.798;2023-12-20T08:28:53;2.85;;;1.30;;
63398;SDS011;49533;-34.520;150.798;2023-12-20T08:31:20;2.35;;;0.95;;
63398;SDS011;49533;-34.520;150.798;2023-12-20T08:33:47;2.90;;;1.38;;
63398;SDS011;49533;-34.520;150.798;2023-12-20T08:36:15;2.15;;;1.27;;
63398;SDS011;49533;-34.520;150.798;2023-12-20T08:38:43;2.90;;;1.27;;
63398;SDS011;49533;-34.520;150.798;2023-12-20T08:41:10;2.90;;;1.30;;
63398;SDS011;49533;-34.520;150.798;2023-12-20T08:43:37;3.70;;;1.25;;
63398;SDS011;49533;-34.520;150.798;2023-12-20T08:46:07;3.40;;;1.02;;
63398;SDS011;49533;-34.520;150.798;2023-12-20T08:48:38;2.45;;;1.23;;
63398;SDS011;49533;-34.520;150.798;2023-12-20T08:51:05;2.45;;;1.30;;
63398;SDS011;49533;-34.520;150.798;2023-12-20T08:53:34;2.20;;;1.02;;
63398;SDS011;49533;-34.520;150.798;2023-12-20T08:56:01;3.58;;;1.25;;
63398;SDS011;49533;-34.520;150.798;2023-12-20T08:58:28;2.60;;;1.33;;
63398;SDS011;49533;-34.520;150.798;2023-12-20T09:00:55;5.15;;;1.08;;
63398;SDS011;49533;-34.520;150.798;2023-12-20T09:03:32;2.60;;;1.30;;
63398;SDS011;49533;-34.520;150.798;2023-12-20T09:06:02;2.10;;;0.80;;
63398;SDS011;49533;-34.520;150.798;2023-12-20T09:08:31;3.15;;;1.17;;
63398;SDS011;49533;-34.520;150.798;2023-12-20T09:11:02;4.05;;;1.48;;
63398;SDS011;49533;-34.520;150.798;2023-12-20T09:13:29;4.20;;;1.10;;
63398;SDS011;49533;-34.520;150.798;2023-12-20T09:15:57;3.20;;;1.00;;
63398;SDS011;49533;-34.520;150.798;2023-12-20T09:18:24;3.10;;;1.08;;
63398;SDS011;49533;-34.520;150.798;2023-12-20T09:20:51;2.95;;;1.33;;
63398;SDS011;49533;-34.520;150.798;2023-12-20T09:23:18;1.88;;;0.82;;
63398;SDS011;49533;-34.520;150.798;2023-12-20T09:25:46;2.70;;;1.15;;
63398;SDS011;49533;-34.520;150.798;2023-12-20T09:28:13;1.95;;;0.90;;
63398;SDS011;49533;-34.520;150.798;2023-12-20T09:30:40;3.42;;;0.95;;
63398;SDS011;49533;-34.520;150.798;2023-12-20T09:33:07;1.98;;;0.77;;
63398;SDS011;49533;-34.520;150.798;2023-12-20T09:35:34;1.58;;;0.65;;
63398;SDS011;49533;-34.520;150.798;2023-12-20T09:38:04;3.85;;;0.90;;
63398;SDS011;49533;-34.520;150.798;2023-12-20T09:40:32;2.13;;;0.80;;
63398;SDS011;49533;-34.520;150.798;2023-12-20T09:43:03;3.30;;;1.02;;
63398;SDS011;49533;-34.520;150.798;2023-12-20T09:45:33;3.65;;;1.08;;
63398;SDS011;49533;-34.520;150.798;2023-12-20T09:48:00;3.50;;;0.82;;
63398;SDS011;49533;-34.520;150.798;2023-12-20T09:50:32;3.83;;;0.82;;
63398;SDS011;49533;-34.520;150.798;2023-12-20T09:53:01;2.78;;;0.90;;
63398;SDS011;49533;-34.520;150.798;2023-12-20T09:55:31;1.65;;;0.70;;
63398;SDS011;49533;-34.520;150.798;2023-12-20T09:57:59;1.55;;;0.63;;
63398;SDS011;49533;-34.520;150.798;2023-12-20T10:00:27;1.13;;;0.47;;
63398;SDS011;49533;-34.520;150.798;2023-12-20T10:02:57;3.40;;;1.05;;
63398;SDS011;49533;-34.520;150.798;2023-12-20T10:05:29;3.78;;;0.90;;
63398;SDS011;49533;-34.520;150.798;2023-12-20T10:08:00;2.88;;;0.60;;
63398;SDS011;49533;-34.520;150.798;2023-12-20T10:10:31;1.42;;;0.50;;
63398;SDS011;49533;-34.520;150.798;2023-12-20T10:13:02;1.40;;;0.50;;
63398;SDS011;49533;-34.520;150.798;2023-12-20T10:15:34;1.88;;;0.47;;
63398;SDS011;49533;-34.520;150.798;2023-12-20T10:18:02;1.50;;;0.50;;
63398;SDS011;49533;-34.520;150.798;2023-12-20T10:20:31;1.45;;;0.60;;
63398;SDS011;49533;-34.520;150.798;2023-12-20T10:22:59;1.52;;;0.52;;
63398;SDS011;49533;-34.520;150.798;2023-12-20T10:25:27;1.52;;;0.30;;
63398;SDS011;49533;-34.520;150.798;2023-12-20T10:30:42;1.45;;;0.55;;
63398;SDS011;49533;-34.520;150.798;2023-12-20T10:33:10;0.47;;;0.20;;
63398;SDS011;49533;-34.520;150.798;2023-12-20T10:35:37;0.47;;;0.35;;
63398;SDS011;49533;-34.520;150.798;2023-12-20T10:38:06;0.25;;;0.20;;
63398;SDS011;49533;-34.520;150.798;2023-12-20T10:40:36;0.20;;;0.20;;
63398;SDS011;49533;-34.520;150.798;2023-12-20T10:43:03;0.88;;;0.38;;
63398;SDS011;49533;-34.520;150.798;2023-12-20T10:45:31;1.45;;;0.30;;
63398;SDS011;49533;-34.520;150.798;2023-12-20T10:47:58;0.13;;;0.13;;
63398;SDS011;49533;-34.520;150.798;2023-12-20T10:50:26;0.60;;;0.28;;
63398;SDS011;49533;-34.520;150.798;2023-12-20T10:52:55;0.93;;;0.20;;
63398;SDS011;49533;-34.520;150.798;2023-12-20T10:55:23;0.52;;;0.40;;
63398;SDS011;49533;-34.520;150.798;2023-12-20T11:00:50;0.35;;;0.20;;
63398;SDS011;49533;-34.520;150.798;2023-12-20T11:03:27;0.55;;;0.20;;
63398;SDS011;49533;-34.520;150.798;2023-12-20T11:05:59;0.40;;;0.20;;
63398;SDS011;49533;-34.520;150.798;2023-12-20T11:08:36;1.73;;;0.35;;
63398;SDS011;49533;-34.520;150.798;2023-12-20T11:14:03;0.55;;;0.10;;
63398;SDS011;49533;-34.520;150.798;2023-12-20T11:16:41;0.20;;;0.20;;
63398;SDS011;49533;-34.520;150.798;2023-12-20T11:19:08;1.00;;;0.20;;
63398;SDS011;49533;-34.520;150.798;2023-12-20T11:21:42;0.10;;;0.10;;
63398;SDS011;49533;-34.520;150.798;2023-12-20T11:24:12;0.17;;;0.17;;
63398;SDS011;49533;-34.520;150.798;2023-12-20T11:26:39;0.10;;;0.10;;
63398;SDS011;49533;-34.520;150.798;2023-12-20T11:29:33;0.10;;;0.10;;
63398;SDS011;49533;-34.520;150.798;2023-12-20T11:32:27;0.30;;;0.00;;
63398;SDS011;49533;-34.520;150.798;2023-12-20T11:34:55;0.10;;;0.10;;
63398;SDS011;49533;-34.520;150.798;2023-12-20T11:37:45;1.55;;;0.10;;
63398;SDS011;49533;-34.520;150.798;2023-12-20T11:40:14;0.43;;;0.20;;
63398;SDS011;49533;-34.520;150.798;2023-12-20T11:42:48;0.00;;;0.00;;
63398;SDS011;49533;-34.520;150.798;2023-12-20T11:45:19;0.17;;;0.10;;
63398;SDS011;49533;-34.520;150.798;2023-12-20T11:50:17;0.43;;;0.43;;
63398;SDS011;49533;-34.520;150.798;2023-12-20T11:52:44;0.10;;;0.10;;
63398;SDS011;49533;-34.520;150.798;2023-12-20T11:55:12;0.13;;;0.00;;
63398;SDS011;49533;-34.520;150.798;2023-12-20T11:57:41;0.20;;;0.10;;
63398;SDS011;49533;-34.520;150.798;2023-12-20T12:00:09;0.40;;;0.10;;
63398;SDS011;49533;-34.520;150.798;2023-12-20T12:02:36;0.10;;;0.03;;
63398;SDS011;49533;-34.520;150.798;2023-12-20T12:05:04;1.40;;;0.20;;
63398;SDS011;49533;-34.520;150.798;2023-12-20T12:07:31;0.00;;;0.00;;
63398;SDS011;49533;-34.520;150.798;2023-12-20T12:09:59;0.47;;;0.13;;
63398;SDS011;49533;-34.520;150.798;2023-12-20T12:12:29;0.00;;;0.00;;
63398;SDS011;49533;-34.520;150.798;2023-12-20T12:14:57;0.00;;;0.00;;
63398;SDS011;49533;-34.520;150.798;2023-12-20T12:17:25;0.08;;;0.08;;
63398;SDS011;49533;-34.520;150.798;2023-12-20T12:19:52;1.27;;;0.10;;
63398;SDS011;49533;-34.520;150.798;2023-12-20T12:22:32;0.10;;;0.08;;
63398;SDS011;49533;-34.520;150.798;2023-12-20T12:25:08;0.20;;;0.10;;
63398;SDS011;49533;-34.520;150.798;2023-12-20T12:27:40;0.13;;;0.08;;
63398;SDS011;49533;-34.520;150.798;2023-12-20T12:30:08;2.10;;;0.10;;
63398;SDS011;49533;-34.520;150.798;2023-12-20T12:32:38;0.25;;;0.10;;
63398;SDS011;49533;-34.520;150.798;2023-12-20T12:35:05;0.30;;;0.10;;
63398;SDS011;49533;-34.520;150.798;2023-12-20T12:37:34;0.08;;;0.00;;
63398;SDS011;49533;-34.520;150.798;2023-12-20T12:40:09;0.52;;;0.10;;
63398;SDS011;49533;-34.520;150.798;2023-12-20T12:42:37;0.13;;;0.03;;
63398;SDS011;49533;-34.520;150.798;2023-12-20T12:45:05;0.10;;;0.10;;
63398;SDS011;49533;-34.520;150.798;2023-12-20T12:47:33;0.20;;;0.20;;
63398;SDS011;49533;-34.520;150.798;2023-12-20T12:50:01;0.20;;;0.20;;
63398;SDS011;49533;-34.520;150.798;2023-12-20T12:52:31;0.00;;;0.00;;
63398;SDS011;49533;-34.520;150.798;2023-12-20T12:54:58;0.13;;;0.13;;
63398;SDS011;49533;-34.520;150.798;2023-12-20T12:57:25;0.63;;;0.08;;
63398;SDS011;49533;-34.520;150.798;2023-12-20T12:59:52;0.08;;;0.00;;
63398;SDS011;49533;-34.520;150.798;2023-12-20T13:02:20;0.10;;;0.00;;
63398;SDS011;49533;-34.520;150.798;2023-12-20T13:04:47;0.00;;;0.00;;
63398;SDS011;49533;-34.520;150.798;2023-12-20T13:07:14;0.25;;;0.10;;
63398;SDS011;49533;-34.520;150.798;2023-12-20T13:09:42;1.02;;;0.00;;
63398;SDS011;49533;-34.520;150.798;2023-12-20T13:12:09;1.27;;;0.30;;
63398;SDS011;49533;-34.520;150.798;2023-12-20T13:14:36;0.00;;;0.00;;
63398;SDS011;49533;-34.520;150.798;2023-12-20T13:17:03;0.47;;;0.00;;
63398;SDS011;49533;-34.520;150.798;2023-12-20T13:19:31;0.43;;;0.00;;
63398;SDS011;49533;-34.520;150.798;2023-12-20T13:21:58;0.65;;;0.10;;
63398;SDS011;49533;-34.520;150.798;2023-12-20T13:24:25;0.98;;;0.10;;
63398;SDS011;49533;-34.520;150.798;2023-12-20T13:26:52;0.00;;;0.00;;
63398;SDS011;49533;-34.520;150.798;2023-12-20T13:29:20;0.00;;;0.00;;
63398;SDS011;49533;-34.520;150.798;2023-12-20T13:31:47;0.47;;;0.10;;
63398;SDS011;49533;-34.520;150.798;2023-12-20T13:34:15;0.10;;;0.00;;
63398;SDS011;49533;-34.520;150.798;2023-12-20T13:36:43;0.00;;;0.00;;
63398;SDS011;49533;-34.520;150.798;2023-12-20T13:39:13;0.13;;;0.00;;
63398;SDS011;49533;-34.520;150.798;2023-12-20T13:41:40;0.00;;;0.00;;
63398;SDS011;49533;-34.520;150.798;2023-12-20T13:44:07;0.00;;;0.00;;
63398;SDS011;49533;-34.520;150.798;2023-12-20T13:46:35;0.00;;;0.00;;
63398;SDS011;49533;-34.520;150.798;2023-12-20T13:49:02;0.00;;;0.00;;
63398;SDS011;49533;-34.520;150.798;2023-12-20T13:51:30;1.90;;;0.05;;
63398;SDS011;49533;-34.520;150.798;2023-12-20T13:53:57;0.00;;;0.00;;
63398;SDS011;49533;-34.520;150.798;2023-12-20T13:56:25;0.20;;;0.00;;
63398;SDS011;49533;-34.520;150.798;2023-12-20T13:58:52;0.00;;;0.00;;
63398;SDS011;49533;-34.520;150.798;2023-12-20T14:01:19;0.00;;;0.00;;
63398;SDS011;49533;-34.520;150.798;2023-12-20T14:03:46;0.08;;;0.00;;
63398;SDS011;49533;-34.520;150.798;2023-12-20T14:06:13;0.20;;;0.03;;
63398;SDS011;49533;-34.520;150.798;2023-12-20T14:08:41;0.00;;;0.00;;
63398;SDS011;49533;-34.520;150.798;2023-12-20T14:11:09;0.00;;;0.00;;
63398;SDS011;49533;-34.520;150.798;2023-12-20T14:13:36;0.00;;;0.00;;
63398;SDS011;49533;-34.520;150.798;2023-12-20T14:16:03;1.02;;;0.10;;
63398;SDS011;49533;-34.520;150.798;2023-12-20T14:18:31;0.00;;;0.00;;
63398;SDS011;49533;-34.520;150.798;2023-12-20T14:20:58;0.40;;;0.30;;
63398;SDS011;49533;-34.520;150.798;2023-12-20T14:23:25;0.00;;;0.00;;
63398;SDS011;49533;-34.520;150.798;2023-12-20T14:25:52;0.25;;;0.00;;